createdAt,value
2023-01-21T00:04:23.045Z,4.29
2023-01-21T00:11:24.673Z,4.78
2023-01-21T00:18:27.121Z,4.11
2023-01-21T00:25:29.956Z,4.44
2023-01-21T00:32:31.532Z,4.73
2023-01-21T00:39:33.170Z,4.67
2023-01-21T00:46:34.884Z,4.48
2023-01-21T00:53:38.245Z,4.62
2023-01-21T01:00:39.889Z,3.79
2023-01-21T01:07:43.359Z,4.32
2023-01-21T01:14:45.133Z,4.53
2023-01-21T01:21:46.828Z,3.64
2023-01-21T01:28:48.649Z,4.24
2023-01-21T01:35:50.330Z,4.48
2023-01-21T01:42:51.975Z,4.78
2023-01-21T01:49:53.690Z,4.93
2023-01-21T01:56:56.419Z,4.78
2023-01-21T02:04:00.842Z,4.77
2023-01-21T02:11:03.288Z,4.66
2023-01-21T02:18:23.575Z,5.22
2023-01-21T02:25:43.480Z,5.06
2023-01-21T02:33:08.694Z,5.27
2023-01-21T02:40:14.099Z,5.03
2023-01-21T02:47:54.165Z,5.22
2023-01-21T02:54:58.026Z,5.21
2023-01-21T03:02:08.777Z,5.09
2023-01-21T03:09:18.005Z,4.95
2023-01-21T03:16:40.246Z,5.12
2023-01-21T03:23:44.905Z,5.03
2023-01-21T03:30:49.212Z,5.06
2023-01-21T03:38:13.209Z,5.17
2023-01-21T03:45:14.912Z,5.12
2023-01-21T03:52:16.482Z,5.24
2023-01-21T03:59:18.072Z,5.12
2023-01-21T04:06:20.952Z,5.12
2023-01-21T04:13:22.620Z,4.92
2023-01-21T04:20:24.283Z,5.04
2023-01-21T04:27:25.975Z,5.12
2023-01-21T04:34:27.654Z,5.05
2023-01-21T04:41:29.302Z,4.94
2023-01-21T04:48:31.371Z,4.93
2023-01-21T04:55:33.038Z,5.09
2023-01-21T05:02:34.724Z,5.06
2023-01-21T05:09:36.399Z,4.95
2023-01-21T05:16:38.157Z,4.82
2023-01-21T05:23:39.814Z,4.82
2023-01-21T05:30:43.280Z,4.96
2023-01-21T05:37:47.717Z,4.84
2023-01-21T05:44:49.352Z,5.04
2023-01-21T05:51:51.044Z,5.02
2023-01-21T05:58:52.647Z,4.88
2023-01-21T06:05:54.260Z,5.08
2023-01-21T06:12:55.939Z,5.13
2023-01-21T06:19:57.520Z,5.25
2023-01-21T06:26:59.172Z,4.69
2023-01-21T06:34:00.785Z,4.57
2023-01-21T06:41:03.103Z,4.59
2023-01-21T06:48:04.925Z,4.94
2023-01-21T06:55:06.845Z,4.97
2023-01-21T07:02:11.044Z,4.69
2023-01-21T07:09:12.713Z,4.63
2023-01-21T07:16:14.567Z,4.66
2023-01-21T07:23:16.204Z,4.71
2023-01-21T07:30:19.206Z,4.87
2023-01-21T07:37:21.018Z,4.73
2023-01-21T07:44:22.663Z,4.83
2023-01-21T07:51:24.348Z,4.58
2023-01-21T07:58:28.975Z,5.11
2023-01-21T08:05:30.764Z,5.13
2023-01-21T08:12:32.525Z,4.78
2023-01-21T08:19:34.185Z,4.84
2023-01-21T08:26:35.838Z,5.20
2023-01-21T08:33:37.781Z,5.04
2023-01-21T08:40:39.483Z,5.52
2023-01-21T08:47:41.139Z,5.53
2023-01-21T08:54:43.329Z,5.31
2023-01-21T09:01:45.198Z,5.53
2023-01-21T09:08:46.860Z,5.62
2023-01-21T09:15:48.500Z,5.65
2023-01-21T09:22:50.124Z,5.97
2023-01-21T09:29:51.812Z,5.48
2023-01-21T09:36:53.469Z,5.93
2023-01-21T09:44:01.149Z,6.07
2023-01-21T09:51:05.972Z,6.16
2023-01-21T09:58:48.130Z,5.91
2023-01-21T10:05:52.828Z,6.12
2023-01-21T10:13:00.301Z,6.18
2023-01-21T10:20:13.267Z,6.18
2023-01-21T10:27:16.430Z,5.87
2023-01-21T10:34:18.532Z,6.21
2023-01-21T10:41:45.075Z,6.37
2023-01-21T10:48:49.066Z,6.30
2023-01-21T10:56:15.415Z,6.37
2023-01-21T11:03:30.899Z,6.74
2023-01-21T11:10:32.580Z,6.69
2023-01-21T11:17:35.832Z,6.97
2023-01-21T11:24:45.400Z,7.05
2023-01-21T11:32:03.460Z,7.26
2023-01-21T11:39:06.469Z,7.34
2023-01-21T11:46:30.934Z,7.46
2023-01-21T11:53:32.619Z,7.22
2023-01-21T12:00:36.051Z,7.31
2023-01-21T12:07:39.259Z,7.35
2023-01-21T12:14:56.420Z,7.49
2023-01-21T12:22:21.297Z,7.44
2023-01-21T12:29:51.139Z,6.98
2023-01-21T12:37:00.371Z,7.15
2023-01-21T12:44:17.509Z,7.12
2023-01-21T12:51:37.493Z,7.16
2023-01-21T12:58:44.328Z,7.04
2023-01-21T13:05:57.215Z,7.08
2023-01-21T13:13:06.427Z,7.15
2023-01-21T13:20:17.981Z,7.53
2023-01-21T13:27:21.858Z,7.34
2023-01-21T13:34:32.411Z,7.51
2023-01-21T13:41:55.862Z,7.72
2023-01-21T13:49:16.479Z,7.16
2023-01-21T13:56:40.573Z,7.34
2023-01-21T14:03:48.255Z,7.42
2023-01-21T14:10:51.286Z,7.43
2023-01-21T14:18:04.221Z,7.51
2023-01-21T14:25:12.280Z,7.62
2023-01-21T14:32:32.236Z,7.44
2023-01-21T14:40:03.223Z,7.33
2023-01-21T14:47:17.385Z,6.97
2023-01-21T14:54:23.425Z,7.13
2023-01-21T15:01:38.654Z,7.44
2023-01-21T15:08:45.991Z,7.26
2023-01-21T15:16:17.189Z,7.31
2023-01-21T15:23:30.987Z,6.79
2023-01-21T15:30:45.097Z,7.04
2023-01-21T15:37:53.689Z,6.52
2023-01-21T15:45:17.019Z,6.45
2023-01-21T15:52:36.476Z,6.56
2023-01-21T16:00:00.164Z,6.52
2023-01-21T16:07:42.320Z,6.74
2023-01-21T16:14:53.386Z,6.68
2023-01-21T16:21:58.552Z,6.51
2023-01-21T16:29:00.268Z,6.43
2023-01-21T16:36:07.429Z,6.02
2023-01-21T16:43:22.959Z,6.10
2023-01-21T16:50:26.683Z,6.55
2023-01-21T16:57:31.946Z,6.21
2023-01-21T17:04:33.938Z,6.31
2023-01-21T17:11:36.743Z,6.06
2023-01-21T17:18:40.679Z,6.41
2023-01-21T17:25:42.622Z,6.31
2023-01-21T17:32:44.541Z,6.08
2023-01-21T17:39:46.588Z,5.94
2023-01-21T17:46:50.325Z,6.04
2023-01-21T17:53:56.400Z,5.93
2023-01-21T18:01:01.960Z,6.12
2023-01-21T18:08:04.573Z,5.95
2023-01-21T18:15:06.921Z,6.13
2023-01-21T18:22:14.755Z,6.02
2023-01-21T18:29:18.223Z,6.11
2023-01-21T18:36:19.930Z,5.76
2023-01-21T18:43:21.724Z,6.25
2023-01-21T18:50:27.516Z,5.96
2023-01-21T18:57:29.249Z,5.88
2023-01-21T19:04:31.144Z,6.02
2023-01-21T19:11:32.982Z,5.80
2023-01-21T19:18:36.189Z,5.73
2023-01-21T19:25:37.913Z,5.83
2023-01-21T19:32:39.731Z,5.95
2023-01-21T19:39:41.904Z,5.85
2023-01-21T19:46:43.846Z,6.03
2023-01-21T19:53:45.582Z,5.79
2023-01-21T20:00:49.141Z,6.01
2023-01-21T20:07:50.929Z,5.67
2023-01-21T20:14:52.567Z,5.84
2023-01-21T20:22:02.055Z,5.70
2023-01-21T20:29:06.510Z,5.66
2023-01-21T20:36:18.201Z,6.02
2023-01-21T20:43:20.533Z,5.99
2023-01-21T20:50:26.396Z,5.95
2023-01-21T20:57:28.057Z,6.22
2023-01-21T21:04:29.968Z,5.89
2023-01-21T21:11:31.724Z,5.88
2023-01-21T21:18:35.216Z,6.06
2023-01-21T21:25:40.689Z,6.04
2023-01-21T21:32:42.295Z,5.91
2023-01-21T21:39:43.922Z,5.72
2023-01-21T21:47:04.587Z,6.12
2023-01-21T21:54:07.802Z,6.23
2023-01-21T22:01:14.269Z,6.05
2023-01-21T22:08:16.220Z,5.83
2023-01-21T22:15:19.241Z,6.08
2023-01-21T22:22:21.230Z,5.72
2023-01-21T22:29:22.903Z,6.07
2023-01-21T22:36:25.594Z,6.15
2023-01-21T22:43:27.899Z,6.08
2023-01-21T22:50:29.616Z,5.72
2023-01-21T22:57:31.254Z,5.78
2023-01-21T23:04:32.935Z,5.89
2023-01-21T23:11:34.794Z,5.88
2023-01-21T23:18:40.632Z,5.92
2023-01-21T23:25:45.081Z,5.73
2023-01-21T23:32:46.907Z,5.93
2023-01-21T23:39:48.557Z,6.16
2023-01-21T23:46:50.486Z,5.99
2023-01-21T23:53:53.664Z,6.00
